createdAt,value
2019-03-09T00:01:39.793Z,7.37
2019-03-09T00:04:07.089Z,5.67
2019-03-09T00:06:34.329Z,6.33
2019-03-09T00:09:01.569Z,5.73
2019-03-09T00:11:30.415Z,5.80
2019-03-09T00:13:57.656Z,7.33
2019-03-09T00:16:24.920Z,6.60
2019-03-09T00:18:52.253Z,5.13
2019-03-09T00:21:19.539Z,9.07
2019-03-09T00:24:06.367Z,5.53
2019-03-09T00:26:55.944Z,4.40
2019-03-09T00:29:42.716Z,3.97
2019-03-09T00:32:13.231Z,3.47
2019-03-09T00:34:41.296Z,3.90
2019-03-09T00:37:08.583Z,3.50
2019-03-09T00:39:35.824Z,4.83
2019-03-09T00:42:03.486Z,3.27
2019-03-09T00:44:30.775Z,4.37
2019-03-09T00:46:58.053Z,4.67
2019-03-09T00:49:25.519Z,4.03
2019-03-09T00:51:52.806Z,3.57
2019-03-09T00:54:20.106Z,3.23
2019-03-09T00:56:47.372Z,6.03
2019-03-09T00:59:14.684Z,6.00
2019-03-09T01:01:41.954Z,3.10
2019-03-09T01:04:09.242Z,5.10
2019-03-09T01:06:36.494Z,7.27
2019-03-09T01:09:06.711Z,3.63
2019-03-09T01:11:34.000Z,4.43
2019-03-09T01:14:01.254Z,4.23
2019-03-09T01:16:28.699Z,5.23
2019-03-09T01:18:55.997Z,7.90
2019-03-09T01:21:23.238Z,5.73
2019-03-09T01:23:50.478Z,4.80
2019-03-09T01:26:17.860Z,6.80
2019-03-09T01:28:45.096Z,4.43
2019-03-09T01:31:12.326Z,4.97
2019-03-09T01:33:39.696Z,5.53
2019-03-09T01:36:06.945Z,5.57
2019-03-09T01:38:34.187Z,6.57
2019-03-09T01:41:01.473Z,6.87
2019-03-09T01:43:28.717Z,6.37
2019-03-09T01:45:55.951Z,7.77
2019-03-09T01:48:23.240Z,7.50
2019-03-09T01:50:50.460Z,7.63
2019-03-09T01:53:20.116Z,7.53
2019-03-09T01:55:47.482Z,7.30
2019-03-09T01:58:15.080Z,8.17
2019-03-09T02:00:42.497Z,7.07
2019-03-09T02:03:09.753Z,7.47
2019-03-09T02:05:39.169Z,6.90
2019-03-09T02:08:06.442Z,6.87
2019-03-09T02:10:33.814Z,7.40
2019-03-09T02:13:01.068Z,8.23
2019-03-09T02:15:28.338Z,8.23
2019-03-09T02:18:00.139Z,6.93
2019-03-09T02:20:27.412Z,5.37
2019-03-09T02:22:55.053Z,4.93
2019-03-09T02:25:22.318Z,5.30
2019-03-09T02:27:49.571Z,4.03
2019-03-09T02:30:18.073Z,3.90
2019-03-09T02:32:45.495Z,3.50
2019-03-09T02:35:12.883Z,5.73
2019-03-09T02:37:41.118Z,3.63
2019-03-09T02:40:27.013Z,5.70
2019-03-09T02:42:54.260Z,7.93
2019-03-09T02:45:22.256Z,7.37
2019-03-09T02:47:49.548Z,10.93
2019-03-09T02:50:16.921Z,7.57
2019-03-09T02:52:44.206Z,13.63
2019-03-09T02:55:11.876Z,12.43
2019-03-09T02:57:39.237Z,11.70
2019-03-09T03:00:08.280Z,9.53
2019-03-09T03:02:38.167Z,13.17
2019-03-09T03:05:05.806Z,11.57
2019-03-09T03:07:33.094Z,12.00
2019-03-09T03:10:00.442Z,14.50
2019-03-09T03:12:27.766Z,11.63
2019-03-09T03:14:54.992Z,10.50
2019-03-09T03:17:22.234Z,10.13
2019-03-09T03:19:49.500Z,11.33
2019-03-09T03:22:16.777Z,11.30
2019-03-09T03:24:44.088Z,12.27
2019-03-09T03:27:11.342Z,13.20
2019-03-09T03:29:38.624Z,9.70
2019-03-09T03:32:06.011Z,14.03
2019-03-09T03:34:33.297Z,11.40
2019-03-09T03:37:00.663Z,12.80
2019-03-09T03:39:28.901Z,10.53
2019-03-09T03:41:56.157Z,18.13
2019-03-09T03:44:23.451Z,14.73
2019-03-09T03:46:50.710Z,12.87
2019-03-09T03:49:17.953Z,10.47
2019-03-09T03:51:45.331Z,13.70
2019-03-09T03:54:12.617Z,12.13
2019-03-09T03:56:39.988Z,15.30
2019-03-09T03:59:07.358Z,11.50
2019-03-09T04:01:34.670Z,14.80
2019-03-09T04:04:01.946Z,10.17
2019-03-09T04:06:29.317Z,12.40
2019-03-09T04:08:56.750Z,13.13
2019-03-09T04:11:24.069Z,9.67
2019-03-09T04:13:51.315Z,17.23
2019-03-09T04:16:18.572Z,14.03
2019-03-09T04:18:45.862Z,14.80
2019-03-09T04:21:13.193Z,12.90
2019-03-09T04:23:40.420Z,17.47
2019-03-09T04:26:07.688Z,15.30
2019-03-09T04:28:35.001Z,18.07
2019-03-09T04:31:02.246Z,16.23
2019-03-09T04:33:29.700Z,18.13
2019-03-09T04:36:06.733Z,17.83
2019-03-09T04:38:34.325Z,22.90
2019-03-09T04:41:01.630Z,22.67
2019-03-09T04:43:28.953Z,16.97
2019-03-09T04:45:56.262Z,19.97
2019-03-09T04:48:23.495Z,16.90
2019-03-09T04:50:50.875Z,15.97
2019-03-09T04:53:18.266Z,16.10
2019-03-09T04:55:46.195Z,15.37
2019-03-09T04:58:13.446Z,15.63
2019-03-09T05:00:40.728Z,22.97
2019-03-09T05:03:08.015Z,19.80
2019-03-09T05:05:35.299Z,23.67
2019-03-09T05:08:56.668Z,20.20
2019-03-09T05:11:28.027Z,16.17
2019-03-09T05:14:02.670Z,21.37
2019-03-09T05:16:29.938Z,15.80
2019-03-09T05:18:57.176Z,15.80
2019-03-09T05:21:24.477Z,16.10
2019-03-09T05:23:51.730Z,20.10
2019-03-09T05:26:18.952Z,20.33
2019-03-09T05:28:46.251Z,19.03
2019-03-09T05:31:13.525Z,24.33
2019-03-09T05:33:40.797Z,17.67
2019-03-09T05:36:08.146Z,22.43
2019-03-09T05:38:35.387Z,20.23
2019-03-09T05:41:02.628Z,21.13
2019-03-09T05:43:29.916Z,19.07
2019-03-09T05:45:57.336Z,17.33
2019-03-09T05:48:24.598Z,23.03
2019-03-09T05:50:51.941Z,14.20
2019-03-09T05:53:20.866Z,19.17
2019-03-09T05:55:48.224Z,16.73
2019-03-09T05:58:15.527Z,19.67
2019-03-09T06:00:43.198Z,17.60
2019-03-09T06:03:10.439Z,16.27
2019-03-09T06:05:45.767Z,15.67
2019-03-09T06:08:13.010Z,20.73
2019-03-09T06:10:40.307Z,18.00
2019-03-09T06:13:07.541Z,14.10
2019-03-09T06:15:34.875Z,12.03
2019-03-09T06:18:02.135Z,19.27
2019-03-09T06:20:29.406Z,14.50
2019-03-09T06:22:56.682Z,16.97
2019-03-09T06:25:23.948Z,17.50
2019-03-09T06:27:51.226Z,16.07
2019-03-09T06:30:18.493Z,18.07
2019-03-09T06:33:23.280Z,18.57
2019-03-09T06:35:56.983Z,17.10
2019-03-09T06:38:49.785Z,12.20
2019-03-09T06:41:21.205Z,18.47
2019-03-09T06:43:48.452Z,12.03
2019-03-09T06:46:15.721Z,18.20
2019-03-09T06:48:43.006Z,13.57
2019-03-09T06:51:10.250Z,18.23
2019-03-09T06:53:37.555Z,18.17
2019-03-09T06:56:04.840Z,19.90
2019-03-09T06:58:35.561Z,12.37
2019-03-09T07:01:21.517Z,22.93
2019-03-09T07:03:48.954Z,21.13
2019-03-09T07:06:16.292Z,20.33
2019-03-09T07:08:43.947Z,15.80
2019-03-09T07:11:12.418Z,18.17
2019-03-09T07:13:40.040Z,16.73
2019-03-09T07:16:07.385Z,15.43
2019-03-09T07:18:38.101Z,15.60
2019-03-09T07:21:05.413Z,20.40
2019-03-09T07:23:32.712Z,13.23
2019-03-09T07:26:01.105Z,25.20
2019-03-09T07:28:28.382Z,20.77
2019-03-09T07:30:57.208Z,20.90
2019-03-09T07:33:24.444Z,23.83
2019-03-09T07:35:51.735Z,18.33
2019-03-09T07:38:19.047Z,20.10
2019-03-09T07:40:46.281Z,14.80
2019-03-09T07:43:15.819Z,18.57
2019-03-09T07:45:43.093Z,15.97
2019-03-09T07:48:10.355Z,25.40
2019-03-09T07:50:37.757Z,21.87
2019-03-09T07:53:04.995Z,19.93
2019-03-09T07:55:32.290Z,14.97
2019-03-09T07:58:04.142Z,20.73
2019-03-09T08:00:31.489Z,20.20
2019-03-09T08:02:59.278Z,21.80
2019-03-09T08:05:26.538Z,14.27
2019-03-09T08:07:53.807Z,18.53
2019-03-09T08:10:21.294Z,12.70
2019-03-09T08:12:48.560Z,13.77
2019-03-09T08:15:16.578Z,22.57
2019-03-09T08:17:43.920Z,18.77
2019-03-09T08:20:11.392Z,17.20
2019-03-09T08:22:38.666Z,13.90
2019-03-09T08:25:06.975Z,17.17
2019-03-09T08:27:34.383Z,17.53
2019-03-09T08:30:02.565Z,14.60
2019-03-09T08:32:30.093Z,16.43
2019-03-09T08:34:57.415Z,20.00
2019-03-09T08:37:26.390Z,18.07
2019-03-09T08:39:53.706Z,19.77
2019-03-09T08:42:20.961Z,13.63
2019-03-09T08:44:48.269Z,15.57
2019-03-09T08:47:15.784Z,18.40
2019-03-09T08:49:43.154Z,20.97
2019-03-09T08:52:10.463Z,18.73
2019-03-09T08:54:37.736Z,16.20
2019-03-09T08:57:05.090Z,17.50
2019-03-09T08:59:32.361Z,16.57
2019-03-09T09:01:59.829Z,12.33
2019-03-09T09:04:27.177Z,12.33
2019-03-09T09:06:54.811Z,13.03
2019-03-09T09:09:22.122Z,11.93
2019-03-09T09:11:49.384Z,13.90
2019-03-09T09:14:16.696Z,16.67
2019-03-09T09:16:43.994Z,16.90
2019-03-09T09:19:11.276Z,18.70
2019-03-09T09:21:38.534Z,15.70
2019-03-09T09:24:05.844Z,15.27
2019-03-09T09:26:33.101Z,15.30
2019-03-09T09:29:00.469Z,13.13
2019-03-09T09:31:27.821Z,17.43
2019-03-09T09:33:55.075Z,13.30
2019-03-09T09:36:22.380Z,12.73
2019-03-09T09:38:49.714Z,15.67
2019-03-09T09:41:17.001Z,16.87
2019-03-09T09:43:44.454Z,17.07
2019-03-09T09:46:11.845Z,14.30
2019-03-09T09:48:39.301Z,13.37
2019-03-09T09:51:06.566Z,18.27
2019-03-09T09:53:33.993Z,12.83
2019-03-09T09:56:01.294Z,15.93
2019-03-09T09:58:28.599Z,17.17
2019-03-09T10:00:55.848Z,15.73
2019-03-09T10:03:23.123Z,13.57
2019-03-09T10:05:50.426Z,10.60
2019-03-09T10:08:17.735Z,14.73
2019-03-09T10:10:45.023Z,14.73
2019-03-09T10:13:12.352Z,14.73
2019-03-09T10:15:39.683Z,14.83
2019-03-09T10:18:06.990Z,15.30
2019-03-09T10:20:34.327Z,15.10
2019-03-09T10:23:04.663Z,16.87
2019-03-09T10:25:31.757Z,13.70
2019-03-09T10:27:59.279Z,14.67
2019-03-09T10:30:26.608Z,12.00
2019-03-09T10:32:53.869Z,14.20
2019-03-09T10:35:21.189Z,18.63
2019-03-09T10:37:48.710Z,16.37
2019-03-09T10:40:16.485Z,18.97
2019-03-09T10:42:43.893Z,16.13
2019-03-09T10:45:11.283Z,15.90
2019-03-09T10:47:38.536Z,10.70
2019-03-09T10:50:08.178Z,15.43
2019-03-09T10:52:35.449Z,13.97
2019-03-09T10:55:03.437Z,11.77
2019-03-09T10:57:30.760Z,14.03
2019-03-09T10:59:58.038Z,15.57
2019-03-09T11:02:25.330Z,13.47
2019-03-09T11:04:52.723Z,13.20
2019-03-09T11:07:20.076Z,6.60
2019-03-09T11:09:47.350Z,10.80
2019-03-09T11:12:14.727Z,9.80
2019-03-09T11:14:42.111Z,13.83
2019-03-09T11:17:09.406Z,12.20
2019-03-09T11:19:36.726Z,13.53
2019-03-09T11:22:04.027Z,10.17
2019-03-09T11:24:31.323Z,12.87
2019-03-09T11:26:58.635Z,11.00
2019-03-09T11:29:28.188Z,13.90
2019-03-09T11:31:55.125Z,16.50
2019-03-09T11:34:22.375Z,13.10
2019-03-09T11:36:49.748Z,14.83
2019-03-09T11:39:17.016Z,12.57
2019-03-09T11:41:44.390Z,13.33
2019-03-09T11:44:11.696Z,11.77
2019-03-09T11:46:41.368Z,12.73
2019-03-09T11:49:08.603Z,13.90
2019-03-09T11:51:35.947Z,13.80
2019-03-09T11:54:03.220Z,13.70
2019-03-09T11:56:30.520Z,13.77
2019-03-09T11:58:57.809Z,12.00
2019-03-09T12:01:25.069Z,12.37
2019-03-09T12:03:52.382Z,10.63
2019-03-09T12:06:19.696Z,12.37
2019-03-09T12:08:46.952Z,13.13
2019-03-09T12:11:14.255Z,11.27
2019-03-09T12:13:41.536Z,8.80
2019-03-09T12:16:08.870Z,13.47
2019-03-09T12:18:36.181Z,11.33
2019-03-09T12:21:03.433Z,11.40
2019-03-09T12:23:30.708Z,21.73
2019-03-09T12:25:58.015Z,17.57
2019-03-09T12:28:25.285Z,16.33
2019-03-09T12:30:52.756Z,13.63
2019-03-09T12:33:20.093Z,12.77
2019-03-09T12:35:47.391Z,13.97
2019-03-09T12:38:14.747Z,13.93
2019-03-09T12:40:42.147Z,16.93
2019-03-09T12:43:09.535Z,13.13
2019-03-09T12:45:37.019Z,14.03
2019-03-09T12:48:04.314Z,11.77
2019-03-09T12:50:31.658Z,13.73
2019-03-09T12:52:58.952Z,12.70
2019-03-09T12:55:26.210Z,13.93
2019-03-09T12:57:53.531Z,15.07
2019-03-09T13:00:20.817Z,13.17
2019-03-09T13:02:48.340Z,13.97
2019-03-09T13:05:16.007Z,14.77
2019-03-09T13:07:43.316Z,15.57
2019-03-09T13:10:11.197Z,15.83
2019-03-09T13:12:38.473Z,12.90
2019-03-09T13:15:06.351Z,14.07
2019-03-09T13:17:36.194Z,17.40
2019-03-09T13:20:03.846Z,13.20
2019-03-09T13:22:31.152Z,18.43
2019-03-09T13:24:58.839Z,12.53
2019-03-09T13:27:26.467Z,14.90
2019-03-09T13:29:54.022Z,18.80
2019-03-09T13:32:21.310Z,19.83
2019-03-09T13:34:48.809Z,18.10
2019-03-09T13:37:16.090Z,17.70
2019-03-09T13:39:43.382Z,15.67
2019-03-09T13:42:10.663Z,20.03
2019-03-09T13:44:37.943Z,21.23
2019-03-09T13:47:05.179Z,10.23
2019-03-09T13:49:32.441Z,14.03
2019-03-09T13:51:59.710Z,8.57
2019-03-09T13:54:26.991Z,12.47
2019-03-09T13:56:54.245Z,8.17
2019-03-09T13:59:21.496Z,13.80
2019-03-09T14:01:48.780Z,12.17
2019-03-09T14:04:16.340Z,14.93
2019-03-09T14:06:43.576Z,11.77
2019-03-09T14:09:10.926Z,12.30
2019-03-09T14:11:38.659Z,15.37
2019-03-09T14:14:05.945Z,12.33
2019-03-09T14:16:33.212Z,12.30
2019-03-09T14:19:02.084Z,11.87
2019-03-09T14:21:29.407Z,11.30
2019-03-09T14:23:56.778Z,15.90
2019-03-09T14:26:25.536Z,14.83
2019-03-09T14:28:52.826Z,22.80
2019-03-09T14:31:20.115Z,25.43
2019-03-09T14:33:47.436Z,26.63
2019-03-09T14:36:14.718Z,26.13
2019-03-09T14:38:42.087Z,17.07
2019-03-09T14:41:09.369Z,22.03
2019-03-09T14:43:36.608Z,27.13
2019-03-09T14:46:03.908Z,23.03
2019-03-09T14:48:31.227Z,22.93
2019-03-09T14:50:58.490Z,18.23
2019-03-09T14:53:25.745Z,11.27
2019-03-09T14:55:53.026Z,6.60
2019-03-09T14:58:20.564Z,9.17
2019-03-09T15:00:47.865Z,15.07
2019-03-09T15:03:15.117Z,11.83
2019-03-09T15:05:42.383Z,17.43
2019-03-09T15:08:09.941Z,13.30
2019-03-09T15:10:37.228Z,11.63
2019-03-09T15:13:04.482Z,13.83
2019-03-09T15:15:31.788Z,12.47
2019-03-09T15:17:59.136Z,15.10
2019-03-09T15:20:26.371Z,13.50
2019-03-09T15:22:53.619Z,10.73
2019-03-09T15:25:20.924Z,15.53
2019-03-09T15:27:48.198Z,12.47
2019-03-09T15:30:15.656Z,13.47
2019-03-09T15:32:42.971Z,7.67
2019-03-09T15:35:10.304Z,13.90
2019-03-09T15:37:37.589Z,13.50
2019-03-09T15:40:05.013Z,6.70
2019-03-09T15:42:32.313Z,5.33
2019-03-09T15:44:59.616Z,9.17
2019-03-09T15:47:26.871Z,7.60
2019-03-09T15:49:54.126Z,8.63
2019-03-09T15:52:21.586Z,6.87
2019-03-09T15:54:48.868Z,7.03
2019-03-09T15:57:16.119Z,8.67
2019-03-09T15:59:43.424Z,8.23
2019-03-09T16:02:11.011Z,7.47
2019-03-09T16:04:38.252Z,8.20
2019-03-09T16:07:06.640Z,9.20
2019-03-09T16:09:34.197Z,13.67
2019-03-09T16:12:01.465Z,13.60
2019-03-09T16:14:28.722Z,13.63
2019-03-09T16:16:55.960Z,7.93
2019-03-09T16:19:23.445Z,7.57
2019-03-09T16:21:50.725Z,7.20
2019-03-09T16:24:18.011Z,7.30
2019-03-09T16:26:45.422Z,9.40
2019-03-09T16:29:12.666Z,11.07
2019-03-09T16:31:41.993Z,9.93
2019-03-09T16:34:09.251Z,10.10
2019-03-09T16:36:36.526Z,7.47
2019-03-09T16:39:07.872Z,11.20
2019-03-09T16:41:37.860Z,5.87
2019-03-09T16:44:05.215Z,10.70
2019-03-09T16:46:32.476Z,6.80
2019-03-09T16:48:59.756Z,7.53
2019-03-09T16:51:26.979Z,5.80
2019-03-09T16:53:54.233Z,7.93
2019-03-09T16:56:21.478Z,7.53
2019-03-09T16:58:48.736Z,8.60
2019-03-09T17:01:15.974Z,7.10
2019-03-09T17:03:43.286Z,10.80
2019-03-09T17:06:10.555Z,11.00
2019-03-09T17:08:37.818Z,12.00
2019-03-09T17:11:05.085Z,9.50
2019-03-09T17:13:32.399Z,11.00
2019-03-09T17:15:59.680Z,10.47
2019-03-09T17:18:26.959Z,8.03
2019-03-09T17:20:56.682Z,4.77
2019-03-09T17:23:23.618Z,7.53
2019-03-09T17:25:50.883Z,9.27
2019-03-09T17:28:18.212Z,8.40
2019-03-09T17:30:45.447Z,12.87
2019-03-09T17:33:12.673Z,8.50
2019-03-09T17:35:41.299Z,8.47
2019-03-09T17:38:08.581Z,11.13
2019-03-09T17:40:36.894Z,12.70
2019-03-09T17:43:04.238Z,8.83
2019-03-09T17:45:32.013Z,12.03
2019-03-09T17:47:59.308Z,8.17
2019-03-09T17:50:26.675Z,8.63
2019-03-09T17:52:53.918Z,12.40
2019-03-09T17:55:21.312Z,7.50
2019-03-09T17:57:48.525Z,12.37
2019-03-09T18:00:18.219Z,10.33
2019-03-09T18:02:45.484Z,12.47
2019-03-09T18:05:12.904Z,7.23
2019-03-09T18:07:40.223Z,6.73
2019-03-09T18:10:14.006Z,8.13
2019-03-09T18:12:41.263Z,8.53
2019-03-09T18:15:11.373Z,5.67
2019-03-09T18:17:38.653Z,7.83
2019-03-09T18:20:06.303Z,12.47
2019-03-09T18:22:33.669Z,11.60
2019-03-09T18:25:00.951Z,7.33
2019-03-09T18:27:28.564Z,11.17
2019-03-09T18:29:56.873Z,11.23
2019-03-09T18:32:24.277Z,12.20
2019-03-09T18:34:51.535Z,10.30
2019-03-09T18:37:18.776Z,12.83
2019-03-09T18:39:46.074Z,9.67
2019-03-09T18:42:13.307Z,14.60
2019-03-09T18:44:40.583Z,9.53
2019-03-09T18:47:07.818Z,13.57
2019-03-09T18:49:37.586Z,10.17
2019-03-09T18:52:04.818Z,14.13
2019-03-09T18:54:32.084Z,11.83
2019-03-09T18:56:59.379Z,15.73
2019-03-09T18:59:26.615Z,14.27
2019-03-09T19:01:53.852Z,8.80
2019-03-09T19:04:21.144Z,10.70
2019-03-09T19:06:48.389Z,13.10
2019-03-09T19:09:15.667Z,10.67
2019-03-09T19:11:42.918Z,14.17
2019-03-09T19:14:10.204Z,12.57
2019-03-09T19:16:37.515Z,8.27
2019-03-09T19:19:04.772Z,11.23
2019-03-09T19:21:32.036Z,10.40
2019-03-09T19:23:59.401Z,7.67
2019-03-09T19:26:26.695Z,12.67
2019-03-09T19:28:53.944Z,6.57
2019-03-09T19:31:21.213Z,4.53
2019-03-09T19:33:48.637Z,12.87
2019-03-09T19:36:15.870Z,13.53
2019-03-09T19:38:43.193Z,5.77
2019-03-09T19:41:10.456Z,7.37
2019-03-09T19:43:37.702Z,10.13
2019-03-09T19:46:04.984Z,10.60
2019-03-09T19:48:32.239Z,9.47
2019-03-09T19:50:59.502Z,9.23
2019-03-09T19:53:26.751Z,10.10
2019-03-09T19:55:53.987Z,9.63
2019-03-09T19:58:21.200Z,12.63
2019-03-09T20:00:48.519Z,6.80
2019-03-09T20:03:15.762Z,9.17
2019-03-09T20:05:43.043Z,5.40
2019-03-09T20:08:10.322Z,6.73
2019-03-09T20:10:37.630Z,10.07
2019-03-09T20:13:07.250Z,8.60
2019-03-09T20:15:34.768Z,12.40
2019-03-09T20:18:02.096Z,9.63
2019-03-09T20:20:29.388Z,13.30
2019-03-09T20:22:56.629Z,14.97
2019-03-09T20:25:24.115Z,10.10
2019-03-09T20:27:51.373Z,15.10
2019-03-09T20:30:18.652Z,8.50
2019-03-09T20:32:47.296Z,13.90
2019-03-09T20:35:14.623Z,10.63
2019-03-09T20:37:41.936Z,12.67
2019-03-09T20:40:09.459Z,13.13
2019-03-09T20:42:37.285Z,14.40
2019-03-09T20:45:06.956Z,10.43
2019-03-09T20:47:34.407Z,9.30
2019-03-09T20:50:01.676Z,7.60
2019-03-09T20:52:29.002Z,12.53
2019-03-09T20:54:56.320Z,9.93
2019-03-09T20:57:23.552Z,7.43
2019-03-09T20:59:51.385Z,9.07
2019-03-09T21:05:57.294Z,11.53
2019-03-09T21:08:24.524Z,9.70
2019-03-09T21:10:51.782Z,12.87
2019-03-09T21:13:19.087Z,6.90
2019-03-09T21:15:46.303Z,10.00
2019-03-09T21:18:13.549Z,10.30
2019-03-09T21:20:40.852Z,11.83
2019-03-09T21:23:08.097Z,12.13
2019-03-09T21:25:35.463Z,9.93
2019-03-09T21:28:02.700Z,9.43
2019-03-09T21:30:29.941Z,6.90
2019-03-09T21:32:57.250Z,11.73
2019-03-09T21:35:24.502Z,9.30
2019-03-09T21:37:51.759Z,9.07
2019-03-09T21:40:19.043Z,8.10
2019-03-09T21:42:59.362Z,9.20
2019-03-09T21:45:26.614Z,11.90
2019-03-09T21:47:53.884Z,6.67
2019-03-09T21:50:21.210Z,12.20
2019-03-09T21:52:48.503Z,12.90
2019-03-09T21:55:15.756Z,12.60
2019-03-09T21:57:43.079Z,6.37
2019-03-09T22:00:11.608Z,14.83
2019-03-09T22:02:38.877Z,8.53
2019-03-09T22:05:08.195Z,7.03
2019-03-09T22:07:35.446Z,5.40
2019-03-09T22:10:02.776Z,9.10
2019-03-09T22:12:30.073Z,15.13
2019-03-09T22:14:57.322Z,8.40
2019-03-09T22:17:24.593Z,13.30
2019-03-09T22:19:51.866Z,14.03
2019-03-09T22:22:19.338Z,11.47
2019-03-09T22:24:46.601Z,10.13
2019-03-09T22:27:13.872Z,11.00
2019-03-09T22:29:41.110Z,8.50
2019-03-09T22:32:08.696Z,12.20
2019-03-09T22:34:35.936Z,9.33
2019-03-09T22:37:03.212Z,12.20
2019-03-09T22:39:30.477Z,8.57
2019-03-09T22:41:57.779Z,8.73
2019-03-09T22:44:25.092Z,8.83
2019-03-09T22:46:52.616Z,6.67
2019-03-09T22:49:19.859Z,10.53
2019-03-09T22:51:47.132Z,9.20
2019-03-09T22:54:14.394Z,8.00
2019-03-09T22:56:41.648Z,11.63
2019-03-09T22:59:08.920Z,12.60
2019-03-09T23:01:36.253Z,8.50
2019-03-09T23:04:03.510Z,9.57
2019-03-09T23:06:30.735Z,12.93
2019-03-09T23:08:58.006Z,8.83
2019-03-09T23:11:25.252Z,11.97
2019-03-09T23:13:52.560Z,11.23
2019-03-09T23:16:19.819Z,8.77
2019-03-09T23:18:47.113Z,12.77
2019-03-09T23:21:14.357Z,8.50
2019-03-09T23:23:41.603Z,8.13
2019-03-09T23:26:08.886Z,8.17
2019-03-09T23:28:48.556Z,9.70
2019-03-09T23:31:15.821Z,9.47
2019-03-09T23:33:43.097Z,10.80
2019-03-09T23:36:10.331Z,7.80
2019-03-09T23:38:37.773Z,10.17
2019-03-09T23:41:05.160Z,11.50
2019-03-09T23:43:32.469Z,9.10
2019-03-09T23:45:59.782Z,12.07
2019-03-09T23:48:27.059Z,11.27
2019-03-09T23:50:54.345Z,9.37
2019-03-09T23:53:21.618Z,11.50
2019-03-09T23:55:48.883Z,9.37
2019-03-09T23:58:16.163Z,13.27
